Harrisville, MI

1:30 AM EDT on September 15, 2014 (GMT -0400)
Presque Isle County | Change Station
CLOSE
Current Station
Airport
Location: Rogers City,
Elevation: 669 ft
Nearby Weather Stations

Elev 669 ft 45.41 °N, 83.81 °W | Updated 15 minutes ago

Clear
Clear
50 °F
Feels Like 50 °F
N
10
Wind Variable Wind from SSW

Today
High -- | Low -- °F
--% Chance of Precip.
Yesterday
High -- | Low -- °F
Precip. -- in
7:12 AM 7:44 PM
Waning Gibbous, 59% visible
Pressure 30.09 in
Visibility 10.0 miles
Clouds Clear
Dew Point 46 °F
Humidity 86%
Rainfall 0.00 in
Snow Depth Not available.
UV 0 out of 12
Pollen 3.80 out of 12
Ozone Good
PM2.5 Good
Flu Activity Not available.
METAR KPZQ 150515Z AUTO 20009KT 10SM CLR 10/08 A3009 RMK AO2 T00980076

More Conditions Fewer Conditions

Pressure 30.09 in
Visibility 10.0 miles
Clouds Clear
Dew Point 46 °F
Humidity 86%
Rainfall 0.00 in
Snow Depth Not available.
UV 0 out of 12
Pollen 3.80 out of 12
Ozone Good
PM2.5 Good
Flu Activity Not available.
METAR KPZQ 150515Z AUTO 20009KT 10SM CLR 10/08 A3009 RMK AO2 T00980076

More Conditions Fewer Conditions

Nowcast | as of 1:00 am EDT on September 15, 2014

At 2 am...mostly cloudy. Scattered rain showers. Temperature 48. Southwest winds 6 mph. At 4 am...mostly cloudy. Scattered rain showers. Temperature 47. Southwest winds 7 mph. At 6 am...mostly cloudy. Scattered rain showers. Temperature 46. Southwest winds 7 mph. At 8 am...mostly cloudy. Chance of light rain. Temperature 47. Southwest winds 7 mph.

×

10-Day Weather Forecast

Almanac

Astronomy

Sep. 15, 2014 Rise Set
Actual Time 7:12 AM EDT 7:44 PM EDT
Civil Twilight 6:42 AM EDT 8:13 PM EDT
Nautical Twilight 6:08 AM EDT 8:47 PM EDT
Astronomical Twilight 5:32 AM EDT 9:23 PM EDT
Moon No Moon Rise 2:25 PM EDT
Length of Visible Light 13h 30m
Length of Day
12h 31m
Tomorrow will be 3m 3s shorter.
Waning Gibbous, 59% of the Moon is Illuminated
Today
Waning Gibbous
Sep 15
Last Quarter
Sep 24
New
Oct 1
First Quarter
Oct 8
Full

Today's Extremes

State Highs State Lows

Community

WunderPhotos

Upload Photos

1,753,415 photos uploaded!

Nearby

Air Quality

  Air Quality AQ Index Pollutant
Yesterday Good
OZONE
Yesterday Good
PM2.5
Current Good
PM2.5
Current Good
OZONE
Sunday Good
OZONE
Sunday Good
PM2.5
Monday Good
OZONE
Monday Good
PM2.5

Snow Depth

Station Depth Elevation
No new snow has been reported.

Earthquake Activity

City Distance Mag. Time & Date
No recent earthquake activity has been reported nearby.
Minimum magnitude displayed is 2.5.

Coastal Water Temperatures

Place Temperature
Alpena, MI 61.0 °F

Nearby Weather Stations